Time,TemperatureF,DewpointF,PressureIn,WindDirection,WindDirectionDegrees,WindSpeedMPH,WindSpeedGustMPH,Humidity,HourlyPrecipIn,Conditions,Clouds,dailyrainin,SoftwareType,DateUTC
2013-01-12 00:09:00,51.8,32.8,17.72,SSW,204,0.0,8.1,48,0.00,,---,0.00,VWS V14.00,2013-01-12 05:09:00,
2013-01-12 00:19:00,51.6,32.6,17.72,SSW,203,0.0,6.7,48,0.00,,---,0.00,VWS V14.00,2013-01-12 05:19:00,
2013-01-12 00:29:00,51.3,32.8,17.72,SSW,193,6.3,6.3,49,0.00,,---,0.00,VWS V14.00,2013-01-12 05:29:00,
2013-01-12 00:39:00,50.7,32.8,17.72,SW,218,5.4,6.3,50,0.00,,---,0.00,VWS V14.00,2013-01-12 05:39:00,
2013-01-12 00:49:00,50.7,33.3,17.72,SW,228,6.3,7.6,51,0.00,,---,0.00,VWS V14.00,2013-01-12 05:49:00,
2013-01-12 00:59:00,50.5,33.6,17.72,SSW,206,2.7,6.3,52,0.00,,---,0.00,VWS V14.00,2013-01-12 05:59:00,
2013-01-12 01:09:00,50.4,33.9,17.72,SW,217,0.0,6.7,53,0.00,,---,0.00,VWS V14.00,2013-01-12 06:09:00,
2013-01-12 01:19:00,50.2,33.7,17.72,South,183,2.2,6.3,53,0.00,,---,0.00,VWS V14.00,2013-01-12 06:19:00,
2013-01-12 01:29:00,50.0,34.0,17.72,SW,221,5.4,5.8,54,0.00,,---,0.00,VWS V14.00,2013-01-12 06:29:00,
2013-01-12 01:39:00,50.0,34.5,17.72,SSW,196,0.0,7.6,55,0.00,,---,0.00,VWS V14.00,2013-01-12 06:39:00,
2013-01-12 01:49:00,49.8,34.8,17.72,SSW,203,0.0,4.9,56,0.00,,---,0.00,VWS V14.00,2013-01-12 06:49:00,
2013-01-12 01:59:00,49.5,34.9,17.72,SW,230,2.2,5.4,57,0.00,,---,0.00,VWS V14.00,2013-01-12 06:59:00,
2013-01-12 02:09:00,49.3,35.1,17.72,SSW,210,0.0,4.0,58,0.00,,---,0.00,VWS V14.00,2013-01-12 07:09:00,
2013-01-12 02:19:00,49.3,35.1,17.72,SSW,213,2.7,3.6,58,0.00,,---,0.00,VWS V14.00,2013-01-12 07:19:00,
2013-01-12 02:29:00,49.5,36.2,17.72,SSW,210,3.1,6.3,60,0.00,,---,0.00,VWS V14.00,2013-01-12 07:29:00,
2013-01-12 02:39:00,49.5,36.2,17.72,SSW,211,4.0,6.3,60,0.00,,---,0.00,VWS V14.00,2013-01-12 07:39:00,
2013-01-12 02:49:00,49.3,36.0,17.72,SSW,205,3.6,6.3,60,0.00,,---,0.00,VWS V14.00,2013-01-12 07:49:00,
2013-01-12 02:59:00,49.1,36.2,17.72,SSW,208,0.0,4.0,61,0.00,,---,0.00,VWS V14.00,2013-01-12 07:59:00,
2013-01-12 03:09:00,49.1,36.7,17.72,SSW,212,2.7,6.3,62,0.00,,---,0.00,VWS V14.00,2013-01-12 08:09:00,
2013-01-12 03:19:00,49.1,37.1,17.72,SSW,196,0.0,5.8,63,0.00,,---,0.00,VWS V14.00,2013-01-12 08:19:00,
2013-01-12 03:29:00,49.3,37.6,17.72,SSW,199,0.0,5.8,64,0.00,,---,0.00,VWS V14.00,2013-01-12 08:29:00,
2013-01-12 03:39:00,49.3,38.0,17.72,SSW,197,0.0,5.8,65,0.00,,---,0.00,VWS V14.00,2013-01-12 08:39:00,
2013-01-12 03:49:00,49.5,38.6,17.72,SW,222,0.0,5.8,66,0.00,,---,0.00,VWS V14.00,2013-01-12 08:49:00,
2013-01-12 03:59:00,49.5,39.0,17.72,SW,235,6.3,6.3,67,0.00,,---,0.00,VWS V14.00,2013-01-12 08:59:00,
2013-01-12 04:09:00,49.5,39.3,17.72,SSW,205,0.0,6.3,68,0.00,,---,0.00,VWS V14.00,2013-01-12 09:09:00,
2013-01-12 04:19:00,49.6,39.9,17.72,SSW,205,0.0,5.4,69,0.00,,---,0.00,VWS V14.00,2013-01-12 09:19:00,
2013-01-12 04:29:00,50.0,40.6,17.72,SSW,197,0.0,4.0,70,0.00,,---,0.00,VWS V14.00,2013-01-12 09:29:00,
2013-01-12 04:39:00,50.2,41.2,17.72,SSW,200,0.0,0.0,71,0.00,,---,0.00,VWS V14.00,2013-01-12 09:39:00,
2013-01-12 04:49:00,50.2,41.2,17.72,SSW,196,0.0,0.0,71,0.00,,---,0.00,VWS V14.00,2013-01-12 09:49:00,
2013-01-12 04:59:00,50.4,41.7,17.72,SSW,207,0.0,0.0,72,0.00,,---,0.00,VWS V14.00,2013-01-12 09:59:00,
2013-01-12 05:09:00,50.5,42.2,17.72,SW,217,0.0,0.0,73,0.00,,---,0.00,VWS V14.00,2013-01-12 10:09:00,
2013-01-12 05:19:00,50.7,42.4,17.72,SSW,206,0.0,0.0,73,0.00,,---,0.00,VWS V14.00,2013-01-12 10:19:00,
2013-01-12 05:29:00,51.1,43.1,17.72,SW,226,0.0,0.0,74,0.00,,---,0.00,VWS V14.00,2013-01-12 10:29:00,
2013-01-12 05:39:00,51.3,43.3,17.72,SSW,211,0.0,0.0,74,0.00,,---,0.00,VWS V14.00,2013-01-12 10:39:00,
2013-01-12 05:49:00,51.3,43.6,17.72,SSW,199,0.0,0.0,75,0.00,,---,0.00,VWS V14.00,2013-01-12 10:49:00,
2013-01-12 05:59:00,51.4,43.8,17.72,SW,217,0.0,0.0,75,0.00,,---,0.00,VWS V14.00,2013-01-12 10:59:00,
2013-01-12 06:09:00,51.1,43.4,17.72,SSW,210,0.0,0.0,75,0.00,,---,0.00,VWS V14.00,2013-01-12 11:09:00,
2013-01-12 06:19:00,50.9,43.3,17.72,SSW,206,0.0,0.0,75,0.00,,---,0.00,VWS V14.00,2013-01-12 11:19:00,
2013-01-12 06:29:00,50.7,43.1,17.72,SSW,205,0.0,0.0,75,0.00,,---,0.00,VWS V14.00,2013-01-12 11:29:00,
2013-01-12 06:39:00,50.7,43.1,17.72,SSW,205,0.0,0.0,75,0.00,,---,0.00,VWS V14.00,2013-01-12 11:39:00,
2013-01-12 06:49:00,50.7,43.1,17.72,West,267,0.0,0.0,75,0.00,,---,0.00,VWS V14.00,2013-01-12 11:49:00,
2013-01-12 06:59:00,50.4,42.8,17.72,SSW,211,0.0,0.0,75,0.00,,---,0.00,VWS V14.00,2013-01-12 11:59:00,
2013-01-12 07:09:00,50.2,42.6,17.72,SSW,208,0.0,0.0,75,0.00,,---,0.00,VWS V14.00,2013-01-12 12:09:00,
2013-01-12 07:19:00,50.4,42.8,17.72,SSW,209,0.0,0.0,75,0.00,,---,0.00,VWS V14.00,2013-01-12 12:19:00,
2013-01-12 07:29:00,50.2,42.9,17.72,SSW,194,0.0,0.0,76,0.00,,---,0.00,VWS V14.00,2013-01-12 12:29:00,
2013-01-12 07:39:00,50.2,42.9,17.72,SSW,210,0.0,0.0,76,0.00,,---,0.00,VWS V14.00,2013-01-12 12:39:00,
2013-01-12 07:49:00,50.2,42.9,17.72,SSW,212,0.0,0.0,76,0.00,,---,0.00,VWS V14.00,2013-01-12 12:49:00,
2013-01-12 07:58:00,50.2,42.9,17.72,SSW,200,0.0,0.0,76,0.00,,---,0.00,VWS V14.00,2013-01-12 12:58:00,
2013-01-12 08:08:00,50.2,42.9,17.72,SW,214,0.0,0.0,76,0.00,,---,0.00,VWS V14.00,2013-01-12 13:08:00,
2013-01-12 08:18:00,50.5,43.6,17.72,SW,215,0.0,0.0,77,0.00,,---,0.00,VWS V14.00,2013-01-12 13:18:00,
2013-01-12 08:28:00,50.7,44.1,17.72,SSW,213,0.0,0.0,78,0.00,,---,0.00,VWS V14.00,2013-01-12 13:28:00,
2013-01-12 08:38:00,50.7,44.1,17.72,SSW,213,0.0,0.0,78,0.00,,---,0.00,VWS V14.00,2013-01-12 13:38:00,
2013-01-12 08:49:00,50.7,44.1,17.72,South,176,0.0,0.0,78,0.00,,---,0.00,VWS V14.00,2013-01-12 13:49:00,
2013-01-12 08:59:00,50.2,43.6,17.72,South,176,0.0,0.0,78,0.00,,---,0.00,VWS V14.00,2013-01-12 13:59:00,
2013-01-12 09:08:00,50.4,43.8,17.72,South,177,0.0,0.0,78,0.00,,---,0.00,VWS V14.00,2013-01-12 14:08:00,
2013-01-12 09:18:00,50.9,44.6,17.72,SSW,194,0.0,0.0,79,0.00,,---,0.00,VWS V14.00,2013-01-12 14:18:00,
2013-01-12 09:28:00,51.4,45.5,17.72,SSW,200,0.0,0.0,80,0.00,,---,0.00,VWS V14.00,2013-01-12 14:28:00,
2013-01-12 09:38:00,51.8,45.8,17.72,SW,214,0.0,0.0,80,0.00,,---,0.00,VWS V14.00,2013-01-12 14:38:00,
2013-01-12 09:48:00,52.9,47.2,17.72,SW,223,0.0,0.0,81,0.00,,---,0.00,VWS V14.00,2013-01-12 14:48:00,
2013-01-12 09:59:00,53.6,47.9,17.72,SSW,212,0.0,0.0,81,0.00,,---,0.00,VWS V14.00,2013-01-12 14:59:00,
2013-01-12 10:08:00,54.9,49.5,17.72,SW,217,0.0,0.0,82,0.00,,---,0.00,VWS V14.00,2013-01-12 15:08:00,
2013-01-12 10:18:00,55.9,50.5,17.72,SSW,206,0.0,0.0,82,0.00,,---,0.00,VWS V14.00,2013-01-12 15:18:00,
2013-01-12 10:28:00,56.3,50.9,17.72,SSW,211,0.0,0.0,82,0.00,,---,0.00,VWS V14.00,2013-01-12 15:28:00,
2013-01-12 10:38:00,56.1,50.7,17.72,SSW,200,0.0,3.1,82,0.00,,---,0.00,VWS V14.00,2013-01-12 15:38:00,
2013-01-12 10:49:00,56.7,51.2,17.72,SW,235,0.0,2.2,82,0.00,,---,0.00,VWS V14.00,2013-01-12 15:49:00,
2013-01-12 10:59:00,57.4,51.3,17.72,West,263,0.0,3.1,80,0.00,,---,0.00,VWS V14.00,2013-01-12 15:59:00,
2013-01-12 11:09:00,58.1,50.2,17.72,West,259,0.0,3.1,75,0.00,,---,0.00,VWS V14.00,2013-01-12 16:09:00,
2013-01-12 11:18:00,59.0,44.3,17.72,SW,214,0.0,3.6,58,0.00,,---,0.00,VWS V14.00,2013-01-12 16:18:00,
2013-01-12 11:28:00,60.4,40.7,17.72,West,265,2.7,4.0,48,0.00,,---,0.00,VWS V14.00,2013-01-12 16:28:00,
2013-01-12 11:38:00,61.2,39.7,17.72,SW,235,2.2,4.9,45,0.00,,---,0.00,VWS V14.00,2013-01-12 16:38:00,
2013-01-12 11:48:00,61.9,38.0,17.72,West,272,0.0,4.0,41,0.00,,---,0.00,VWS V14.00,2013-01-12 16:48:00,
2013-01-12 11:58:00,62.8,38.1,17.72,SSW,205,2.2,5.8,40,0.00,,---,0.00,VWS V14.00,2013-01-12 16:58:00,
2013-01-12 12:09:00,63.5,36.8,17.72,WSW,242,0.0,4.9,37,0.00,,---,0.00,VWS V14.00,2013-01-12 17:09:00,
2013-01-12 12:18:00,63.3,35.2,17.72,WNW,303,0.0,4.5,35,0.00,,---,0.00,VWS V14.00,2013-01-12 17:18:00,
2013-01-12 12:28:00,64.4,36.2,17.72,SE,133,0.0,4.5,35,0.00,,---,0.00,VWS V14.00,2013-01-12 17:28:00,
2013-01-12 12:38:00,65.5,37.1,17.72,SSW,213,4.0,5.4,35,0.00,,---,0.00,VWS V14.00,2013-01-12 17:38:00,
2013-01-12 12:48:00,66.6,36.6,17.72,SW,215,0.0,7.2,33,0.00,,---,0.00,VWS V14.00,2013-01-12 17:48:00,
2013-01-12 12:58:00,67.5,36.6,17.72,SSE,162,4.9,8.3,32,0.00,,---,0.00,VWS V14.00,2013-01-12 17:58:00,
2013-01-12 13:08:00,68.0,34.6,17.72,South,179,0.0,5.4,29,0.00,,---,0.00,VWS V14.00,2013-01-12 18:08:00,
2013-01-12 13:19:00,67.6,34.3,17.72,WSW,257,0.0,4.0,29,0.00,,---,0.00,VWS V14.00,2013-01-12 18:19:00,
2013-01-12 13:29:00,68.5,34.2,17.72,SSW,203,0.0,5.4,28,0.00,,---,0.00,VWS V14.00,2013-01-12 18:29:00,
2013-01-12 13:38:00,68.0,34.6,17.72,SW,216,0.0,3.1,29,0.00,,---,0.00,VWS V14.00,2013-01-12 18:38:00,
2013-01-12 13:48:00,67.3,34.8,17.72,South,189,0.0,5.8,30,0.00,,---,0.00,VWS V14.00,2013-01-12 18:48:00,
2013-01-12 13:58:00,67.1,35.5,17.72,SSW,198,0.0,0.0,31,0.00,,---,0.00,VWS V14.00,2013-01-12 18:58:00,
2013-01-12 14:08:00,67.3,37.2,17.72,SSE,163,0.0,4.0,33,0.00,,---,0.00,VWS V14.00,2013-01-12 19:08:00,
2013-01-12 14:19:00,67.5,35.8,17.72,SSW,212,0.0,0.0,31,0.00,,---,0.00,VWS V14.00,2013-01-12 19:19:00,
2013-01-12 14:28:00,68.7,35.2,17.72,SSW,199,7.2,7.2,29,0.00,,---,0.00,VWS V14.00,2013-01-12 19:28:00,
2013-01-12 14:38:00,70.2,33.7,17.72,SSW,204,0.0,7.2,26,0.00,,---,0.00,VWS V14.00,2013-01-12 19:38:00,
2013-01-12 14:48:00,68.5,32.3,17.72,SW,225,0.0,3.6,26,0.00,,---,0.00,VWS V14.00,2013-01-12 19:48:00,
2013-01-12 14:58:00,66.9,33.7,17.72,South,180,0.0,2.7,29,0.00,,---,0.00,VWS V14.00,2013-01-12 19:58:00,
2013-01-12 15:08:00,66.2,34.7,17.72,South,178,0.0,3.1,31,0.00,,---,0.00,VWS V14.00,2013-01-12 20:08:00,
2013-01-12 15:18:00,66.4,34.9,17.72,South,179,0.0,3.1,31,0.00,,---,0.00,VWS V14.00,2013-01-12 20:18:00,
2013-01-12 15:28:00,64.8,35.0,17.72,SSW,195,0.0,0.0,33,0.00,,---,0.00,VWS V14.00,2013-01-12 20:28:00,
2013-01-12 15:38:00,64.0,35.1,17.72,South,169,0.0,0.0,34,0.00,,---,0.00,VWS V14.00,2013-01-12 20:38:00,
2013-01-12 15:48:00,63.7,34.8,17.72,South,169,0.0,0.0,34,0.00,,---,0.00,VWS V14.00,2013-01-12 20:48:00,
2013-01-12 15:58:00,63.5,35.4,17.72,South,169,0.0,0.0,35,0.00,,---,0.00,VWS V14.00,2013-01-12 20:58:00,
2013-01-12 16:08:00,63.1,35.1,17.72,South,169,0.0,0.0,35,0.00,,---,0.00,VWS V14.00,2013-01-12 21:08:00,
2013-01-12 16:18:00,62.6,35.3,17.72,South,169,0.0,0.0,36,0.00,,---,0.00,VWS V14.00,2013-01-12 21:18:00,
2013-01-12 16:28:00,62.2,37.0,17.72,South,169,0.0,0.0,39,0.00,,---,0.00,VWS V14.00,2013-01-12 21:28:00,
2013-01-12 16:39:00,61.7,37.2,17.72,South,169,0.0,0.0,40,0.00,,---,0.00,VWS V14.00,2013-01-12 21:39:00,
2013-01-12 16:48:00,61.2,37.3,17.72,South,169,0.0,0.0,41,0.00,,---,0.00,VWS V14.00,2013-01-12 21:48:00,
2013-01-12 16:58:00,61.0,37.8,17.72,South,169,0.0,0.0,42,0.00,,---,0.00,VWS V14.00,2013-01-12 21:58:00,
2013-01-12 17:08:00,60.8,38.2,17.72,ESE,112,0.0,0.0,43,0.00,,---,0.00,VWS V14.00,2013-01-12 22:08:00,
2013-01-12 17:19:00,60.3,38.8,17.72,East,101,0.0,0.0,45,0.00,,---,0.00,VWS V14.00,2013-01-12 22:19:00,
2013-01-12 17:28:00,60.1,39.2,17.72,ESE,102,0.0,0.0,46,0.00,,---,0.00,VWS V14.00,2013-01-12 22:28:00,
2013-01-12 17:38:00,59.9,39.1,17.72,ESE,102,0.0,0.0,46,0.00,,---,0.00,VWS V14.00,2013-01-12 22:38:00,
2013-01-12 17:59:00,58.8,41.2,17.72,ESE,102,0.0,0.0,52,0.04,,---,0.04,VWS V14.00,2013-01-12 22:59:00,
2013-01-12 18:08:00,58.5,42.4,17.72,ESE,102,0.0,0.0,55,0.04,,---,0.04,VWS V14.00,2013-01-12 23:08:00,
2013-01-12 18:39:00,57.7,46.5,17.72,NE,56,0.0,0.0,66,0.16,,---,0.16,VWS V14.00,2013-01-12 23:39:00,
2013-01-12 19:08:00,57.6,47.9,17.72,East,85,0.0,0.0,70,0.28,,---,0.31,VWS V14.00,2013-01-13 00:08:00,
2013-01-12 19:39:00,57.9,49.3,17.72,West,274,0.0,0.0,73,0.43,,---,0.55,VWS V14.00,2013-01-13 00:39:00,
2013-01-12 19:48:00,58.3,50.0,17.72,ENE,74,0.0,0.0,74,0.43,,---,0.59,VWS V14.00,2013-01-13 00:48:00,
2013-01-12 19:58:00,58.1,50.2,17.72,ENE,75,0.0,0.0,75,0.43,,---,0.63,VWS V14.00,2013-01-13 00:58:00,
2013-01-12 20:08:00,57.9,50.0,17.72,ENE,63,0.0,0.0,75,0.39,,---,0.67,VWS V14.00,2013-01-13 01:08:00,
2013-01-12 20:18:00,57.9,50.4,17.72,ENE,73,0.0,0.0,76,0.35,,---,0.67,VWS V14.00,2013-01-13 01:18:00,
2013-01-12 20:28:00,57.9,50.4,17.72,ENE,78,0.0,0.0,76,0.28,,---,0.67,VWS V14.00,2013-01-13 01:28:00,
2013-01-12 20:38:00,58.1,50.9,17.72,NE,51,0.0,0.0,77,0.24,,---,0.71,VWS V14.00,2013-01-13 01:38:00,
2013-01-12 20:48:00,58.3,51.5,17.72,East,90,0.0,0.0,78,0.35,,---,0.91,VWS V14.00,2013-01-13 01:48:00,
2013-01-12 20:58:00,58.5,51.6,17.72,NE,51,0.0,0.0,78,0.55,,---,1.14,VWS V14.00,2013-01-13 01:58:00,
2013-01-12 21:08:00,58.6,52.2,17.72,East,96,0.0,0.0,79,0.51,,---,1.14,VWS V14.00,2013-01-13 02:08:00,
2013-01-12 21:18:00,58.8,52.3,17.72,East,84,0.0,0.0,79,0.55,,---,1.22,VWS V14.00,2013-01-13 02:18:00,
2013-01-12 21:28:00,58.6,52.2,17.72,ESE,102,0.0,0.0,79,0.55,,---,1.22,VWS V14.00,2013-01-13 02:28:00,
2013-01-12 21:38:00,58.6,52.2,17.72,SE,132,0.0,0.0,79,0.55,,---,1.22,VWS V14.00,2013-01-13 02:38:00,
2013-01-12 21:48:00,58.8,52.3,17.72,East,101,0.0,0.0,79,0.51,,---,1.22,VWS V14.00,2013-01-13 02:48:00,
2013-01-12 21:58:00,58.6,52.2,17.72,SSE,168,0.0,0.0,79,0.35,,---,1.26,VWS V14.00,2013-01-13 02:58:00,
2013-01-12 22:08:00,58.6,52.2,17.72,SSE,156,0.0,0.0,79,0.12,,---,1.26,VWS V14.00,2013-01-13 03:08:00,
2013-01-12 22:18:00,59.0,52.5,17.72,South,181,0.0,0.0,79,0.12,,---,1.26,VWS V14.00,2013-01-13 03:18:00,
2013-01-12 22:28:00,59.5,53.4,17.72,South,179,0.0,0.0,80,0.04,,---,1.26,VWS V14.00,2013-01-13 03:28:00,
2013-01-12 22:38:00,60.6,54.4,17.72,South,185,0.0,0.0,80,0.04,,---,1.26,VWS V14.00,2013-01-13 03:38:00,
2013-01-12 22:48:00,61.7,55.8,17.72,SSW,197,0.0,0.0,81,0.04,,---,1.26,VWS V14.00,2013-01-13 03:48:00,
2013-01-12 22:58:00,62.2,56.3,17.72,South,178,0.0,10.5,81,0.04,,---,1.26,VWS V14.00,2013-01-13 03:58:00,
2013-01-12 23:08:00,62.4,56.5,17.72,SSW,198,0.0,0.0,81,0.00,,---,1.26,VWS V14.00,2013-01-13 04:08:00,
2013-01-12 23:18:00,62.6,56.7,17.72,South,176,0.0,0.0,81,0.00,,---,1.26,VWS V14.00,2013-01-13 04:18:00,
2013-01-12 23:28:00,62.8,56.9,17.72,South,169,0.0,0.0,81,0.00,,---,1.26,VWS V14.00,2013-01-13 04:28:00,
2013-01-12 23:38:00,62.8,56.9,17.72,SSE,163,0.0,0.0,81,0.00,,---,1.26,VWS V14.00,2013-01-13 04:38:00,
2013-01-12 23:48:00,62.8,56.5,17.72,SSW,205,0.0,0.0,80,0.00,,---,1.26,VWS V14.00,2013-01-13 04:48:00,
2013-01-12 23:58:00,63.0,56.3,17.72,SSE,168,0.0,0.0,79,0.00,,---,0.00,VWS V14.00,2013-01-13 04:58:00,